createdAt,value
2019-02-28T00:01:25.187Z,12.43
2019-02-28T00:03:52.603Z,12.80
2019-02-28T00:06:19.992Z,11.90
2019-02-28T00:08:47.400Z,12.03
2019-02-28T00:11:14.845Z,12.03
2019-02-28T00:13:45.210Z,13.60
2019-02-28T00:16:12.610Z,12.60
2019-02-28T00:18:40.045Z,12.60
2019-02-28T00:21:07.462Z,12.82
2019-02-28T00:23:34.924Z,13.10
2019-02-28T00:26:02.364Z,13.03
2019-02-28T00:28:29.779Z,12.93
2019-02-28T00:30:57.276Z,12.63
2019-02-28T00:33:24.720Z,13.35
2019-02-28T00:35:52.110Z,13.43
2019-02-28T00:38:19.515Z,12.03
2019-02-28T00:40:46.939Z,12.90
2019-02-28T00:43:14.336Z,12.43
2019-02-28T00:45:41.756Z,13.30
2019-02-28T00:48:09.155Z,11.83
2019-02-28T00:50:36.604Z,12.82
2019-02-28T00:53:06.368Z,13.35
2019-02-28T00:55:33.150Z,12.80
2019-02-28T00:58:00.632Z,12.53
2019-02-28T01:00:28.046Z,13.10
2019-02-28T01:02:55.819Z,13.40
2019-02-28T01:05:23.296Z,13.38
2019-02-28T01:07:50.695Z,12.75
2019-02-28T01:10:18.107Z,13.70
2019-02-28T01:12:45.568Z,13.55
2019-02-28T01:15:13.000Z,14.20
2019-02-28T01:17:40.441Z,14.10
2019-02-28T01:20:07.865Z,13.48
2019-02-28T01:22:35.256Z,14.35
2019-02-28T01:25:02.644Z,13.38
2019-02-28T01:27:30.171Z,14.03
2019-02-28T01:29:57.568Z,13.18
2019-02-28T01:32:24.953Z,13.83
2019-02-28T01:34:52.288Z,13.68
2019-02-28T01:37:20.883Z,13.32
2019-02-28T01:39:48.714Z,14.38
2019-02-28T01:42:16.225Z,14.43
2019-02-28T01:44:45.271Z,13.80
2019-02-28T01:47:12.727Z,14.25
2019-02-28T01:49:40.157Z,15.08
2019-02-28T01:52:10.180Z,14.68
2019-02-28T01:54:36.663Z,14.25
2019-02-28T01:57:04.103Z,14.38
2019-02-28T01:59:31.575Z,14.05
2019-02-28T02:01:58.882Z,14.63
2019-02-28T02:04:26.213Z,14.13
2019-02-28T02:06:53.913Z,15.75
2019-02-28T02:09:21.373Z,14.45
2019-02-28T02:11:48.947Z,15.25
2019-02-28T02:14:16.347Z,15.25
2019-02-28T02:16:43.748Z,15.53
2019-02-28T02:19:11.233Z,15.23
2019-02-28T02:21:38.623Z,14.53
2019-02-28T02:24:06.179Z,15.13
2019-02-28T02:26:33.565Z,15.58
2019-02-28T02:29:01.852Z,15.75
2019-02-28T02:31:29.518Z,15.43
2019-02-28T02:33:57.028Z,15.08
2019-02-28T02:36:24.490Z,16.02
2019-02-28T02:38:51.915Z,15.70
2019-02-28T02:41:19.308Z,15.23
2019-02-28T02:43:46.698Z,15.50
2019-02-28T02:46:19.688Z,16.00
2019-02-28T02:48:43.409Z,15.18
2019-02-28T02:51:12.506Z,15.30
2019-02-28T02:53:42.119Z,16.60
2019-02-28T02:56:09.405Z,15.20
2019-02-28T02:58:36.842Z,15.03
2019-02-28T03:01:04.304Z,16.10
2019-02-28T03:03:31.725Z,16.62
2019-02-28T03:05:59.138Z,15.30
2019-02-28T03:08:26.621Z,15.83
2019-02-28T03:10:54.028Z,15.15
2019-02-28T03:13:21.484Z,15.78
2019-02-28T03:15:48.874Z,15.63
2019-02-28T03:18:20.408Z,16.62
2019-02-28T03:20:45.407Z,15.58
2019-02-28T03:23:12.812Z,15.95
2019-02-28T03:25:40.275Z,16.67
2019-02-28T03:28:07.820Z,16.37
2019-02-28T03:30:35.260Z,15.08
2019-02-28T03:33:02.742Z,15.25
2019-02-28T03:35:39.943Z,15.48
2019-02-28T03:37:59.360Z,15.10
2019-02-28T03:40:26.771Z,15.72
2019-02-28T03:42:54.197Z,16.05
2019-02-28T03:45:21.609Z,15.85
2019-02-28T03:47:49.017Z,16.23
2019-02-28T03:50:16.559Z,15.53
2019-02-28T03:52:44.901Z,16.48
2019-02-28T03:55:12.535Z,15.48
2019-02-28T03:57:39.988Z,16.00
2019-02-28T04:00:07.384Z,15.85
2019-02-28T04:02:34.793Z,15.53
2019-02-28T04:05:02.336Z,15.72
2019-02-28T04:07:29.807Z,15.50
2019-02-28T04:09:57.201Z,17.00
2019-02-28T04:12:24.629Z,16.57
2019-02-28T04:14:52.023Z,16.80
2019-02-28T04:17:19.503Z,15.30
2019-02-28T04:19:46.927Z,14.75
2019-02-28T04:22:14.337Z,15.58
2019-02-28T04:24:46.398Z,16.30
2019-02-28T04:27:10.889Z,15.75
2019-02-28T04:29:38.399Z,15.40
2019-02-28T04:32:05.872Z,14.73
2019-02-28T04:34:33.313Z,15.50
2019-02-28T04:37:00.779Z,15.78
2019-02-28T04:39:28.199Z,15.00
2019-02-28T04:41:55.681Z,15.72
2019-02-28T04:44:23.095Z,15.23
2019-02-28T04:46:50.521Z,15.85
2019-02-28T04:49:21.775Z,15.32
2019-02-28T04:51:47.067Z,15.08
2019-02-28T04:54:14.498Z,14.45
2019-02-28T04:56:42.347Z,14.05
2019-02-28T04:59:11.038Z,14.83
2019-02-28T05:01:38.493Z,14.95
2019-02-28T05:04:05.950Z,15.40
2019-02-28T05:06:33.377Z,15.85
2019-02-28T05:09:00.890Z,14.95
2019-02-28T05:11:30.571Z,15.60
2019-02-28T05:13:57.463Z,15.10
2019-02-28T05:16:24.895Z,13.98
2019-02-28T05:18:52.296Z,14.50
2019-02-28T05:21:20.281Z,15.05
2019-02-28T05:23:48.176Z,14.63
2019-02-28T05:26:15.590Z,15.15
2019-02-28T05:28:43.063Z,15.65
2019-02-28T05:31:10.477Z,15.40
2019-02-28T05:33:38.447Z,14.23
2019-02-28T05:36:07.016Z,15.35
2019-02-28T05:38:34.483Z,15.70
2019-02-28T05:41:01.942Z,14.93
2019-02-28T05:43:32.129Z,15.65
2019-02-28T05:45:59.435Z,15.80
2019-02-28T05:48:27.343Z,15.93
2019-02-28T05:50:54.777Z,14.50
2019-02-28T05:53:22.195Z,14.70
2019-02-28T05:55:49.675Z,15.15
2019-02-28T05:58:18.415Z,15.08
2019-02-28T06:00:46.059Z,14.70
2019-02-28T06:03:13.466Z,14.93
2019-02-28T06:05:43.433Z,14.43
2019-02-28T06:08:10.123Z,13.32
2019-02-28T06:10:37.528Z,13.45
2019-02-28T06:13:04.951Z,13.55
2019-02-28T06:15:34.231Z,13.62
2019-02-28T06:18:04.315Z,12.20
2019-02-28T06:20:31.748Z,13.60
2019-02-28T06:22:59.179Z,12.70
2019-02-28T06:25:26.554Z,12.95
2019-02-28T06:27:54.013Z,12.70
2019-02-28T06:30:21.494Z,13.15
2019-02-28T06:32:48.967Z,12.37
2019-02-28T06:35:20.235Z,12.03
2019-02-28T06:37:45.768Z,12.10
2019-02-28T06:40:13.169Z,12.63
2019-02-28T06:42:43.462Z,13.98
2019-02-28T06:45:09.921Z,13.48
2019-02-28T06:47:39.012Z,13.72
2019-02-28T06:50:06.663Z,13.20
2019-02-28T06:52:34.172Z,13.30
2019-02-28T06:55:01.680Z,12.75
2019-02-28T06:57:29.095Z,14.95
2019-02-28T06:59:56.480Z,17.42
2019-02-28T07:02:23.880Z,18.15
2019-02-28T07:04:51.371Z,20.68
2019-02-28T07:07:18.856Z,21.02
2019-02-28T07:09:46.255Z,22.60
2019-02-28T07:12:13.669Z,23.67
2019-02-28T07:14:41.065Z,26.27
2019-02-28T07:17:10.775Z,25.70
2019-02-28T07:19:37.588Z,24.18
2019-02-28T07:22:05.000Z,26.93
2019-02-28T07:24:37.269Z,23.67
2019-02-28T07:27:01.550Z,25.90
2019-02-28T07:29:28.956Z,26.27
2019-02-28T07:32:00.039Z,26.27
2019-02-28T07:34:25.554Z,25.95
2019-02-28T07:36:52.966Z,26.17
2019-02-28T07:39:20.358Z,26.42
2019-02-28T07:41:47.824Z,27.35
2019-02-28T07:44:21.259Z,26.77
2019-02-28T07:46:44.494Z,25.75
2019-02-28T07:49:12.095Z,27.27
2019-02-28T07:51:39.563Z,27.15
2019-02-28T07:54:06.959Z,27.10
2019-02-28T07:56:34.400Z,27.82
2019-02-28T07:59:05.357Z,26.95
2019-02-28T08:01:30.937Z,27.93
2019-02-28T08:03:58.367Z,28.73
2019-02-28T08:06:25.791Z,28.47
2019-02-28T08:08:53.343Z,30.35
2019-02-28T08:11:20.979Z,29.72
2019-02-28T08:13:48.564Z,30.37
2019-02-28T08:16:15.977Z,28.50
2019-02-28T08:18:43.456Z,29.15
2019-02-28T08:21:10.863Z,31.57
2019-02-28T08:23:38.272Z,36.35
2019-02-28T08:26:05.797Z,37.23
2019-02-28T08:28:36.731Z,37.20
2019-02-28T08:31:02.515Z,39.15
2019-02-28T08:33:29.956Z,40.78
2019-02-28T08:35:57.404Z,42.43
2019-02-28T08:38:24.805Z,42.58
2019-02-28T08:40:52.234Z,42.05
2019-02-28T08:43:26.893Z,42.43
2019-02-28T08:45:49.233Z,44.80
2019-02-28T08:48:16.690Z,44.35
2019-02-28T08:50:44.115Z,43.45
2019-02-28T08:53:12.469Z,44.00
2019-02-28T08:55:44.259Z,45.30
2019-02-28T08:58:10.068Z,45.52
2019-02-28T09:00:37.798Z,43.52
2019-02-28T09:03:05.364Z,45.48
2019-02-28T09:05:32.750Z,44.25
2019-02-28T09:08:00.386Z,44.67
2019-02-28T09:10:27.939Z,45.65
2019-02-28T09:12:55.326Z,45.92
2019-02-28T09:15:22.716Z,44.60
2019-02-28T09:17:50.137Z,44.83
2019-02-28T09:20:17.579Z,45.05
2019-02-28T09:22:45.225Z,44.88
2019-02-28T09:25:12.657Z,44.88
2019-02-28T09:27:40.060Z,45.52
2019-02-28T09:30:07.472Z,46.58
2019-02-28T09:32:34.981Z,47.03
2019-02-28T09:35:05.482Z,46.40
2019-02-28T09:37:31.616Z,46.20
2019-02-28T09:39:59.068Z,47.38
2019-02-28T09:42:26.487Z,45.88
2019-02-28T09:44:53.888Z,48.78
2019-02-28T09:47:23.367Z,48.90
2019-02-28T09:49:50.417Z,46.60
2019-02-28T09:52:17.886Z,46.48
2019-02-28T09:54:45.475Z,47.08
2019-02-28T09:57:15.386Z,46.98
2019-02-28T09:59:42.024Z,49.00
2019-02-28T10:02:09.638Z,49.60
2019-02-28T10:04:37.123Z,46.85
2019-02-28T10:07:04.569Z,49.65
2019-02-28T10:09:31.971Z,45.95
2019-02-28T10:11:59.408Z,49.38
2019-02-28T10:14:28.820Z,47.20
2019-02-28T10:16:55.931Z,46.10
2019-02-28T10:19:23.827Z,47.27
2019-02-28T10:21:52.083Z,47.25
2019-02-28T10:24:19.831Z,47.23
2019-02-28T10:26:48.249Z,45.92
2019-02-28T10:29:16.370Z,46.35
2019-02-28T10:31:43.779Z,45.33
2019-02-28T10:34:11.209Z,44.95
2019-02-28T10:36:38.673Z,43.63
2019-02-28T10:39:08.942Z,42.43
2019-02-28T10:41:35.332Z,41.33
2019-02-28T10:44:02.748Z,38.38
2019-02-28T10:46:30.128Z,40.88
2019-02-28T10:48:57.530Z,39.38
2019-02-28T10:51:24.932Z,38.02
2019-02-28T10:53:52.568Z,37.67
2019-02-28T10:56:20.067Z,36.33
2019-02-28T10:58:50.086Z,36.63
2019-02-28T11:01:17.678Z,37.95
2019-02-28T11:03:45.115Z,37.35
2019-02-28T11:06:12.532Z,37.73
2019-02-28T11:08:40.013Z,37.50
2019-02-28T11:11:10.396Z,36.70
2019-02-28T11:13:36.585Z,36.83
2019-02-28T11:16:04.041Z,38.35
2019-02-28T11:18:31.429Z,39.60
2019-02-28T11:20:59.372Z,41.00
2019-02-28T11:23:26.824Z,41.42
2019-02-28T11:25:54.280Z,42.95
2019-02-28T11:28:21.675Z,43.33
2019-02-28T11:30:49.253Z,45.43
2019-02-28T11:33:16.706Z,45.58
2019-02-28T11:35:44.148Z,43.58
2019-02-28T11:38:11.597Z,44.50
2019-02-28T11:40:40.528Z,43.45
2019-02-28T11:43:08.150Z,42.75
2019-02-28T11:45:35.542Z,42.93
2019-02-28T11:48:02.981Z,42.17
2019-02-28T11:50:30.440Z,44.03
2019-02-28T11:53:03.289Z,41.98
2019-02-28T11:55:27.214Z,40.67
2019-02-28T11:57:54.728Z,40.95
2019-02-28T12:00:22.148Z,42.40
2019-02-28T12:02:53.220Z,42.50
2019-02-28T12:05:18.907Z,43.15
2019-02-28T12:07:46.301Z,40.52
2019-02-28T12:10:14.821Z,41.37
2019-02-28T12:12:44.669Z,41.37
2019-02-28T12:15:11.351Z,39.78
2019-02-28T12:17:38.775Z,38.73
2019-02-28T12:20:06.186Z,39.18
2019-02-28T12:22:33.647Z,38.33
2019-02-28T12:25:04.422Z,35.20
2019-02-28T12:27:30.558Z,33.08
2019-02-28T12:29:58.014Z,32.30
2019-02-28T12:32:25.495Z,30.85
2019-02-28T12:34:52.945Z,30.32
2019-02-28T12:37:22.113Z,28.40
2019-02-28T12:39:49.707Z,28.38
2019-02-28T12:42:17.121Z,25.15
2019-02-28T12:44:46.281Z,24.10
2019-02-28T12:47:13.816Z,22.17
2019-02-28T12:49:41.278Z,21.62
2019-02-28T12:52:11.254Z,20.62
2019-02-28T12:54:38.188Z,19.95
2019-02-28T12:57:05.646Z,19.20
2019-02-28T12:59:34.776Z,18.42
2019-02-28T13:02:07.438Z,17.73
2019-02-28T13:04:32.525Z,17.55
2019-02-28T13:07:00.455Z,16.17
2019-02-28T13:09:27.881Z,15.53
2019-02-28T13:11:55.282Z,15.30
2019-02-28T13:14:22.770Z,14.35
2019-02-28T13:16:50.312Z,13.05
2019-02-28T13:19:20.102Z,12.37
2019-02-28T13:21:47.855Z,12.40
2019-02-28T13:24:15.460Z,12.45
2019-02-28T13:26:42.951Z,11.35
2019-02-28T13:29:10.387Z,10.93
2019-02-28T13:31:37.889Z,9.83
2019-02-28T13:34:05.431Z,9.90
2019-02-28T13:36:32.942Z,9.15
2019-02-28T13:39:00.547Z,9.10
2019-02-28T13:41:28.106Z,9.10
2019-02-28T13:43:59.436Z,8.08
2019-02-28T13:46:32.246Z,7.45
2019-02-28T13:48:53.952Z,7.80
2019-02-28T13:51:21.366Z,7.30
2019-02-28T13:53:48.830Z,7.70
2019-02-28T13:56:18.004Z,7.03
2019-02-28T13:58:45.600Z,6.12
2019-02-28T14:01:13.054Z,6.65
2019-02-28T14:03:42.249Z,5.90
2019-02-28T14:06:12.270Z,6.35
2019-02-28T14:08:38.896Z,5.75
2019-02-28T14:11:10.138Z,5.65
2019-02-28T14:13:35.537Z,5.47
2019-02-28T14:16:03.065Z,5.22
2019-02-28T14:18:30.585Z,5.47
2019-02-28T14:20:59.509Z,5.33
2019-02-28T14:23:27.235Z,5.50
2019-02-28T14:25:54.669Z,5.20
2019-02-28T14:28:22.077Z,5.05
2019-02-28T14:30:49.512Z,4.92
2019-02-28T14:33:19.473Z,5.17
2019-02-28T14:35:46.102Z,4.47
2019-02-28T14:38:13.824Z,4.42
2019-02-28T14:40:41.237Z,5.15
2019-02-28T14:43:08.652Z,4.78
2019-02-28T14:45:39.279Z,4.35
2019-02-28T14:48:05.255Z,4.35
2019-02-28T14:50:32.768Z,4.37
2019-02-28T14:53:00.175Z,4.30
2019-02-28T14:55:29.299Z,4.40
2019-02-28T14:57:56.791Z,4.00
2019-02-28T15:00:25.612Z,4.15
2019-02-28T15:02:53.353Z,4.35
2019-02-28T15:05:21.654Z,3.80
2019-02-28T15:07:49.291Z,3.77
2019-02-28T15:10:16.687Z,3.60
2019-02-28T15:12:44.207Z,3.87
2019-02-28T15:15:11.617Z,3.47
2019-02-28T15:17:40.531Z,3.90
2019-02-28T15:20:08.222Z,4.17
2019-02-28T15:22:35.615Z,3.95
2019-02-28T15:25:04.404Z,3.87
2019-02-28T15:27:32.124Z,3.55
2019-02-28T15:29:59.839Z,3.47
2019-02-28T15:32:27.436Z,3.33
2019-02-28T15:34:54.857Z,3.30
2019-02-28T15:37:22.262Z,3.67
2019-02-28T15:39:50.044Z,3.85
2019-02-28T15:42:18.316Z,3.50
2019-02-28T15:44:45.731Z,4.00
2019-02-28T15:47:13.115Z,3.30
2019-02-28T15:49:41.825Z,3.72
2019-02-28T15:52:09.823Z,3.33
2019-02-28T15:54:37.257Z,3.20
2019-02-28T15:57:04.777Z,3.72
2019-02-28T15:59:32.255Z,3.95
2019-02-28T16:01:59.721Z,3.60
2019-02-28T16:04:27.152Z,3.67
2019-02-28T16:06:57.958Z,3.70
2019-02-28T16:09:23.671Z,3.60
2019-02-28T16:11:51.104Z,4.33
2019-02-28T16:14:18.627Z,3.92
2019-02-28T16:16:46.114Z,3.85
2019-02-28T16:19:13.592Z,4.22
2019-02-28T16:21:41.605Z,4.17
2019-02-28T16:24:09.113Z,4.03
2019-02-28T16:26:36.614Z,4.22
2019-02-28T16:29:04.063Z,4.70
2019-02-28T16:31:31.555Z,4.60
2019-02-28T16:34:08.036Z,4.55
2019-02-28T16:36:29.219Z,4.03
2019-02-28T16:38:56.834Z,4.37
2019-02-28T16:41:24.352Z,4.28
2019-02-28T16:43:52.261Z,3.60
2019-02-28T16:46:21.054Z,3.40
2019-02-28T16:48:48.492Z,3.92
2019-02-28T16:51:18.696Z,3.80
2019-02-28T16:53:47.890Z,3.90
2019-02-28T16:56:16.012Z,4.22
2019-02-28T16:58:43.555Z,3.85
2019-02-28T17:01:11.015Z,3.90
2019-02-28T17:03:41.755Z,3.75
2019-02-28T17:06:07.911Z,3.50
2019-02-28T17:08:41.539Z,3.42
2019-02-28T17:11:08.950Z,4.60
2019-02-28T17:13:41.813Z,3.62
2019-02-28T17:16:21.853Z,3.80
2019-02-28T17:18:49.324Z,3.42
2019-02-28T17:21:18.040Z,3.37
2019-02-28T17:23:45.655Z,3.40
2019-02-28T17:26:13.105Z,3.95
2019-02-28T17:29:02.526Z,3.35
2019-02-28T17:31:48.244Z,3.45
2019-02-28T17:34:23.759Z,3.17
2019-02-28T17:36:48.658Z,3.27
2019-02-28T17:39:16.061Z,3.55
2019-02-28T17:41:43.507Z,2.80
2019-02-28T17:44:10.923Z,3.35
2019-02-28T17:46:38.431Z,4.03
2019-02-28T17:49:05.852Z,3.60
2019-02-28T17:51:33.246Z,3.40
2019-02-28T17:54:00.718Z,3.17
2019-02-28T17:56:28.149Z,3.20
2019-02-28T17:58:55.574Z,3.27
2019-02-28T18:01:25.397Z,3.60
2019-02-28T18:03:52.180Z,2.80
2019-02-28T18:06:19.574Z,3.62
2019-02-28T18:08:46.971Z,2.83
2019-02-28T18:11:14.393Z,3.42
2019-02-28T18:13:41.796Z,3.22
2019-02-28T18:16:09.215Z,3.42
2019-02-28T18:18:36.705Z,3.80
2019-02-28T18:21:04.535Z,4.10
2019-02-28T18:23:33.253Z,3.30
2019-02-28T18:26:00.643Z,3.30
2019-02-28T18:28:28.296Z,3.42
2019-02-28T18:30:55.727Z,3.08
2019-02-28T18:33:23.143Z,3.98
2019-02-28T18:35:50.547Z,3.58
2019-02-28T18:38:18.049Z,3.52
2019-02-28T18:40:45.515Z,3.95
2019-02-28T18:43:12.938Z,3.40
2019-02-28T18:45:40.746Z,3.52
2019-02-28T18:48:08.183Z,3.58
2019-02-28T18:50:35.555Z,3.77
2019-02-28T18:53:03.279Z,4.00
2019-02-28T18:55:34.846Z,3.72
2019-02-28T18:58:01.371Z,4.05
2019-02-28T19:00:29.024Z,3.83
2019-02-28T19:02:56.453Z,3.72
2019-02-28T19:05:25.840Z,3.83
2019-02-28T19:07:53.028Z,3.75
2019-02-28T19:10:20.626Z,4.22
2019-02-28T19:12:48.207Z,3.90
2019-02-28T19:15:15.663Z,4.10
2019-02-28T19:17:43.059Z,4.15
2019-02-28T19:20:10.470Z,4.10
2019-02-28T19:22:37.895Z,4.05
2019-02-28T19:25:05.322Z,4.08
2019-02-28T19:27:32.715Z,4.80
2019-02-28T19:30:00.288Z,4.33
2019-02-28T19:32:27.721Z,4.85
2019-02-28T19:34:55.123Z,4.35
2019-02-28T19:37:22.671Z,4.83
2019-02-28T19:39:50.262Z,4.60
2019-02-28T19:42:17.677Z,4.75
2019-02-28T19:44:45.128Z,4.62
2019-02-28T19:47:12.579Z,4.55
2019-02-28T19:49:39.985Z,4.92
2019-02-28T19:52:07.446Z,4.75
2019-02-28T19:54:34.913Z,5.08
2019-02-28T19:57:02.347Z,5.00
2019-02-28T19:59:29.828Z,4.85
2019-02-28T20:01:57.298Z,4.85
2019-02-28T20:04:24.747Z,5.50
2019-02-28T20:06:52.250Z,4.85
2019-02-28T20:09:19.693Z,4.33
2019-02-28T20:11:47.736Z,5.42
2019-02-28T20:14:15.171Z,5.30
2019-02-28T20:16:42.590Z,5.42
2019-02-28T20:19:10.445Z,5.22
2019-02-28T20:21:37.942Z,5.58
2019-02-28T20:24:05.432Z,6.00
2019-02-28T20:26:32.871Z,5.75
2019-02-28T20:29:00.378Z,5.03
2019-02-28T20:31:27.792Z,5.40
2019-02-28T20:33:55.333Z,5.60
2019-02-28T20:36:22.724Z,4.92
2019-02-28T20:38:50.134Z,5.25
2019-02-28T20:41:17.579Z,4.90
2019-02-28T20:43:45.149Z,4.92
2019-02-28T20:46:12.554Z,4.75
2019-02-28T20:48:40.018Z,4.55
2019-02-28T20:51:07.469Z,5.17
2019-02-28T20:53:34.881Z,4.35
2019-02-28T20:56:02.362Z,4.95
2019-02-28T20:58:29.912Z,4.70
2019-02-28T21:00:57.352Z,3.95
2019-02-28T21:03:25.080Z,4.33
2019-02-28T21:05:52.524Z,3.80
2019-02-28T21:08:20.044Z,3.90
2019-02-28T21:10:47.493Z,4.33
2019-02-28T21:13:14.911Z,4.22
2019-02-28T21:15:42.328Z,4.15
2019-02-28T21:18:10.034Z,4.12
2019-02-28T21:20:37.431Z,3.60
2019-02-28T21:23:04.847Z,4.05
2019-02-28T21:25:32.308Z,4.00
2019-02-28T21:27:59.930Z,4.08
2019-02-28T21:30:27.356Z,3.85
2019-02-28T21:32:54.867Z,4.15
2019-02-28T21:35:22.326Z,3.67
2019-02-28T21:37:49.868Z,3.90
2019-02-28T21:40:17.339Z,3.62
2019-02-28T21:42:44.767Z,3.58
2019-02-28T21:45:12.189Z,4.10
2019-02-28T21:47:39.740Z,4.40
2019-02-28T21:50:07.642Z,3.75
2019-02-28T21:52:35.130Z,3.83
2019-02-28T21:55:02.579Z,4.22
2019-02-28T21:57:30.105Z,3.52
2019-02-28T21:59:57.514Z,3.67
2019-02-28T22:02:25.034Z,3.80
2019-02-28T22:04:52.547Z,3.17
2019-02-28T22:07:19.968Z,3.80
2019-02-28T22:09:47.496Z,3.77
2019-02-28T22:12:14.916Z,4.20
2019-02-28T22:14:42.359Z,3.70
2019-02-28T22:17:09.864Z,3.90
2019-02-28T22:19:37.300Z,3.92
2019-02-28T22:22:04.763Z,3.40
2019-02-28T22:24:32.271Z,3.58
2019-02-28T22:26:59.689Z,4.10
2019-02-28T22:29:27.582Z,3.98
2019-02-28T22:32:04.161Z,4.50
2019-02-28T22:34:51.304Z,4.47
2019-02-28T22:37:18.820Z,4.45
2019-02-28T22:39:46.227Z,4.30
2019-02-28T22:42:21.580Z,4.37
2019-02-28T22:44:42.826Z,4.47
2019-02-28T22:47:10.290Z,4.10
2019-02-28T22:49:37.763Z,4.03
2019-02-28T22:52:05.863Z,3.75
2019-02-28T22:54:34.228Z,3.45
2019-02-28T22:57:01.792Z,3.50
2019-02-28T22:59:29.267Z,4.12
2019-02-28T23:01:56.749Z,4.20
2019-02-28T23:04:24.209Z,3.70
2019-02-28T23:06:51.710Z,4.10
2019-02-28T23:09:19.185Z,4.03
2019-02-28T23:11:46.594Z,3.92
2019-02-28T23:14:14.016Z,4.72
2019-02-28T23:16:41.527Z,4.53
2019-02-28T23:19:09.089Z,4.90
2019-02-28T23:21:36.519Z,4.97
2019-02-28T23:24:03.959Z,5.20
2019-02-28T23:26:31.363Z,5.90
2019-02-28T23:28:58.796Z,6.30
2019-02-28T23:31:26.624Z,7.92
2019-02-28T23:34:01.116Z,8.28
2019-02-28T23:36:23.161Z,8.33
2019-02-28T23:38:50.690Z,10.10
2019-02-28T23:41:18.149Z,10.75
2019-02-28T23:43:45.588Z,10.85
2019-02-28T23:46:13.050Z,14.05
2019-02-28T23:48:42.362Z,12.37
2019-02-28T23:51:09.604Z,12.70
2019-02-28T23:53:37.116Z,12.70
2019-02-28T23:56:04.524Z,14.28
2019-02-28T23:58:32.006Z,14.07
